createdAt,value
2018-06-13T00:01:46.494Z,23.50
2018-06-13T00:04:14.195Z,23.50
2018-06-13T00:06:41.889Z,23.50
2018-06-13T00:09:09.661Z,23.50
2018-06-13T00:11:37.353Z,23.40
2018-06-13T00:14:05.266Z,23.30
2018-06-13T00:16:32.962Z,23.10
2018-06-13T00:19:00.647Z,23.20
2018-06-13T00:23:56.071Z,23.20
2018-06-13T00:26:23.738Z,23.30
2018-06-13T00:28:51.472Z,23.20
2018-06-13T00:31:19.202Z,23.40
2018-06-13T00:33:46.889Z,23.40
2018-06-13T00:36:14.538Z,23.40
2018-06-13T00:38:43.941Z,23.50
2018-06-13T00:41:11.604Z,23.40
2018-06-13T00:43:39.282Z,23.20
2018-06-13T00:46:06.974Z,23.20
2018-06-13T00:48:34.677Z,23.00
2018-06-13T00:51:02.408Z,23.10
2018-06-13T00:53:30.078Z,23.00
2018-06-13T00:56:15.256Z,22.90
2018-06-13T00:58:43.183Z,22.70
2018-06-13T01:01:10.852Z,22.80
2018-06-13T01:03:38.565Z,22.80
2018-06-13T01:06:06.256Z,22.70
2018-06-13T01:08:33.940Z,22.70
2018-06-13T01:13:29.318Z,22.70
2018-06-13T01:15:56.994Z,22.70
2018-06-13T01:18:24.663Z,22.80
2018-06-13T01:20:52.325Z,22.80
2018-06-13T01:23:20.019Z,22.80
2018-06-13T01:25:47.728Z,22.90
2018-06-13T01:28:15.431Z,22.90
2018-06-13T01:30:43.203Z,23.00
2018-06-13T01:33:10.894Z,23.00
2018-06-13T01:35:38.638Z,23.00
2018-06-13T01:38:06.337Z,23.00
2018-06-13T01:40:34.045Z,22.90
2018-06-13T01:43:01.703Z,23.00
2018-06-13T01:45:29.397Z,23.00
2018-06-13T01:47:57.128Z,22.90
2018-06-13T01:50:24.794Z,23.00
2018-06-13T01:52:52.458Z,23.00
2018-06-13T01:55:20.131Z,22.80
2018-06-13T01:57:47.785Z,22.80
2018-06-13T02:00:15.467Z,22.90
2018-06-13T02:02:43.157Z,22.90
2018-06-13T02:05:11.616Z,22.90
2018-06-13T02:07:39.302Z,23.00
2018-06-13T02:10:06.999Z,23.10
2018-06-13T02:12:34.660Z,23.20
2018-06-13T02:15:02.343Z,23.00
2018-06-13T02:17:30.018Z,23.00
2018-06-13T02:19:57.693Z,23.10
2018-06-13T02:22:25.372Z,23.20
2018-06-13T02:24:53.039Z,23.10
2018-06-13T02:27:20.735Z,23.10
2018-06-13T02:29:48.653Z,24.20
2018-06-13T02:32:16.335Z,23.10
2018-06-13T02:34:43.990Z,23.00
2018-06-13T02:37:11.671Z,22.90
2018-06-13T02:39:39.354Z,23.00
2018-06-13T02:42:07.621Z,23.00
2018-06-13T02:44:35.292Z,22.90
2018-06-13T02:47:03.016Z,23.00
2018-06-13T02:49:30.703Z,23.00
2018-06-13T02:51:58.360Z,23.00
2018-06-13T02:54:26.037Z,23.20
2018-06-13T02:56:53.711Z,23.20
2018-06-13T02:59:21.360Z,23.20
2018-06-13T03:01:49.025Z,23.20
2018-06-13T03:04:17.961Z,23.10
2018-06-13T03:06:45.620Z,23.30
2018-06-13T03:09:13.306Z,23.40
2018-06-13T03:11:41.005Z,23.30
2018-06-13T03:14:08.654Z,23.40
2018-06-13T03:16:36.328Z,23.40
2018-06-13T03:19:04.010Z,23.40
2018-06-13T03:21:31.701Z,23.30
2018-06-13T03:23:59.350Z,23.20
2018-06-13T03:26:27.017Z,23.20
2018-06-13T03:28:54.675Z,22.90
2018-06-13T03:31:22.367Z,23.10
2018-06-13T03:33:50.064Z,23.20
2018-06-13T03:36:17.723Z,23.20
2018-06-13T03:38:45.387Z,23.20
2018-06-13T03:41:13.128Z,23.30
2018-06-13T03:43:40.759Z,23.00
2018-06-13T03:46:08.448Z,23.00
2018-06-13T03:48:36.182Z,23.00
2018-06-13T03:51:03.889Z,22.90
2018-06-13T03:53:31.564Z,22.90
2018-06-13T03:55:59.264Z,22.80
2018-06-13T04:00:54.676Z,22.60
2018-06-13T04:03:22.394Z,22.50
2018-06-13T04:05:50.077Z,22.50
2018-06-13T04:08:17.809Z,22.40
2018-06-13T04:10:45.482Z,22.50
2018-06-13T04:13:13.160Z,22.30
2018-06-13T04:15:40.843Z,22.40
2018-06-13T04:18:08.494Z,22.30
2018-06-13T04:20:36.190Z,22.30
2018-06-13T04:23:03.882Z,22.20
2018-06-13T04:25:31.571Z,22.30
2018-06-13T04:30:26.960Z,22.30
2018-06-13T04:32:54.633Z,22.20
2018-06-13T04:35:22.331Z,22.20
2018-06-13T04:37:50.015Z,22.40
2018-06-13T04:40:17.697Z,22.60
2018-06-13T04:42:45.432Z,22.50
2018-06-13T04:45:13.133Z,22.60
2018-06-13T04:47:40.885Z,22.50
2018-06-13T04:50:08.590Z,22.60
2018-06-13T04:52:36.277Z,22.80
2018-06-13T04:55:03.969Z,22.80
2018-06-13T04:57:31.673Z,22.60
2018-06-13T04:59:59.478Z,22.60
2018-06-13T05:02:27.193Z,22.60
2018-06-13T05:04:54.881Z,22.30
2018-06-13T05:07:22.647Z,22.20
2018-06-13T05:09:50.406Z,22.40
2018-06-13T05:12:18.079Z,22.40
2018-06-13T05:14:46.652Z,22.40
2018-06-13T05:17:14.438Z,22.20
2018-06-13T05:19:42.230Z,22.10
2018-06-13T05:22:10.018Z,22.20
2018-06-13T05:24:38.002Z,22.30
2018-06-13T05:27:05.734Z,22.40
2018-06-13T05:29:33.503Z,22.30
2018-06-13T05:32:01.297Z,22.30
2018-06-13T05:34:29.020Z,22.30
2018-06-13T05:36:56.738Z,22.40
2018-06-13T05:39:24.474Z,22.50
2018-06-13T05:41:52.357Z,22.50
2018-06-13T05:44:20.445Z,22.50
2018-06-13T05:46:48.307Z,22.50
2018-06-13T05:49:16.068Z,22.40
2018-06-13T05:51:43.803Z,22.60
2018-06-13T05:54:11.492Z,22.70
2018-06-13T05:56:39.162Z,22.80
2018-06-13T05:59:06.847Z,22.80
2018-06-13T06:01:34.593Z,22.90
2018-06-13T06:04:02.305Z,23.00
2018-06-13T06:06:30.035Z,23.10
2018-06-13T06:08:57.363Z,23.00
2018-06-13T06:11:25.097Z,22.90
2018-06-13T06:16:21.039Z,22.80
2018-06-13T06:18:48.754Z,22.70
2018-06-13T06:21:16.439Z,22.80
2018-06-13T06:23:44.220Z,22.70
2018-06-13T06:26:11.895Z,22.60
2018-06-13T06:28:39.649Z,22.50
2018-06-13T06:31:07.347Z,22.60
2018-06-13T06:36:02.790Z,22.70
2018-06-13T06:38:31.075Z,22.80
2018-06-13T06:40:58.775Z,22.90
2018-06-13T06:45:54.210Z,22.80
2018-06-13T06:48:22.371Z,22.90
2018-06-13T06:50:50.055Z,22.80
2018-06-13T06:55:45.427Z,22.80
2018-06-13T06:58:13.126Z,22.90
2018-06-13T07:00:40.828Z,22.80
2018-06-13T07:03:08.539Z,22.90
2018-06-13T07:05:36.269Z,22.80
2018-06-13T07:08:03.987Z,22.90
2018-06-13T07:10:31.689Z,22.90
2018-06-13T07:13:00.273Z,23.20
2018-06-13T07:15:28.004Z,23.00
2018-06-13T07:17:55.666Z,23.00
2018-06-13T07:20:23.333Z,23.20
2018-06-13T07:22:52.057Z,23.30
2018-06-13T07:25:19.740Z,23.40
2018-06-13T07:27:47.407Z,23.50
2018-06-13T07:30:15.140Z,23.50
2018-06-13T07:32:42.843Z,23.60
2018-06-13T07:37:38.338Z,23.80
2018-06-13T07:40:06.261Z,24.00
2018-06-13T07:42:34.004Z,24.20
2018-06-13T07:45:01.776Z,24.50
2018-06-13T07:47:29.546Z,24.80
2018-06-13T07:49:57.268Z,25.00
2018-06-13T07:52:24.986Z,25.00
2018-06-13T07:54:52.730Z,25.20
2018-06-13T07:57:20.444Z,25.30
2018-06-13T07:59:48.170Z,25.40
2018-06-13T08:02:15.962Z,25.40
2018-06-13T08:04:43.655Z,25.50
2018-06-13T08:07:11.419Z,25.50
2018-06-13T08:09:39.192Z,26.90
2018-06-13T08:12:06.951Z,25.60
2018-06-13T08:14:34.723Z,26.00
2018-06-13T08:17:02.461Z,26.10
2018-06-13T08:19:30.275Z,26.20
2018-06-13T08:21:58.085Z,26.20
2018-06-13T08:24:25.901Z,26.30
2018-06-13T08:26:54.016Z,26.40
2018-06-13T08:29:22.536Z,26.30
2018-06-13T08:34:18.279Z,26.30
2018-06-13T08:36:46.082Z,26.50
2018-06-13T08:39:13.844Z,26.70
2018-06-13T08:41:41.736Z,26.90
2018-06-13T08:44:10.018Z,27.00
2018-06-13T08:46:37.744Z,27.00
2018-06-13T08:51:33.240Z,27.10
2018-06-13T08:54:01.002Z,27.20
2018-06-13T08:56:28.777Z,27.30
2018-06-13T08:58:56.561Z,27.50
2018-06-13T09:01:24.336Z,27.50
2018-06-13T09:06:21.017Z,27.60
2018-06-13T09:08:48.822Z,27.70
2018-06-13T09:11:16.650Z,27.80
2018-06-13T09:13:44.454Z,27.80
2018-06-13T09:16:12.333Z,27.60
2018-06-13T09:18:40.143Z,27.70
2018-06-13T09:21:07.979Z,27.60
2018-06-13T09:23:35.765Z,27.60
2018-06-13T09:26:03.535Z,27.40
2018-06-13T09:28:31.292Z,27.40
2018-06-13T09:30:59.059Z,27.20
2018-06-13T09:33:26.846Z,27.00
2018-06-13T09:35:54.593Z,27.00
2018-06-13T09:38:22.534Z,27.10
2018-06-13T09:40:50.779Z,27.20
2018-06-13T09:43:18.597Z,27.30
2018-06-13T09:45:46.710Z,27.50
2018-06-13T09:48:14.837Z,27.50
2018-06-13T09:50:42.623Z,27.60
2018-06-13T09:53:10.477Z,27.60
2018-06-13T09:55:38.195Z,27.70
2018-06-13T09:58:05.946Z,27.80
2018-06-13T10:00:39.551Z,28.10
2018-06-13T10:03:07.299Z,28.30
2018-06-13T10:05:35.064Z,28.60
2018-06-13T10:08:02.884Z,30.20
2018-06-13T10:10:30.623Z,29.20
2018-06-13T10:12:58.332Z,29.50
2018-06-13T10:15:26.046Z,29.90
2018-06-13T10:17:53.743Z,30.20
2018-06-13T10:20:21.490Z,30.50
2018-06-13T10:22:49.232Z,30.80
2018-06-13T10:25:16.964Z,30.80
2018-06-13T10:27:44.688Z,30.80
2018-06-13T10:30:12.427Z,30.30
2018-06-13T10:32:40.162Z,30.60
2018-06-13T10:35:09.928Z,30.70
2018-06-13T10:37:37.655Z,30.40
2018-06-13T10:40:06.350Z,30.30
2018-06-13T10:42:34.083Z,30.20
2018-06-13T10:45:01.796Z,29.90
2018-06-13T10:47:29.522Z,29.40
2018-06-13T10:49:57.284Z,29.30
2018-06-13T10:52:25.015Z,29.30
2018-06-13T10:54:53.604Z,29.40
2018-06-13T10:57:20.454Z,29.30
2018-06-13T10:59:48.206Z,29.30
2018-06-13T11:02:15.919Z,29.50
2018-06-13T11:04:43.674Z,29.70
2018-06-13T11:07:11.414Z,29.90
2018-06-13T11:09:39.139Z,29.80
2018-06-13T11:12:06.867Z,29.80
2018-06-13T11:14:34.599Z,30.00
2018-06-13T11:17:02.303Z,30.40
2018-06-13T11:19:30.014Z,30.30
2018-06-13T11:21:57.721Z,32.20
2018-06-13T11:24:25.430Z,30.50
2018-06-13T11:26:53.099Z,30.70
2018-06-13T11:29:20.876Z,30.70
2018-06-13T11:31:48.633Z,31.20
2018-06-13T11:34:16.350Z,31.50
2018-06-13T11:36:44.049Z,31.50
2018-06-13T11:39:11.778Z,31.80
2018-06-13T11:41:39.739Z,31.80
2018-06-13T11:44:07.447Z,31.30
2018-06-13T11:46:36.378Z,31.20
2018-06-13T11:49:04.598Z,31.20
2018-06-13T11:51:32.534Z,31.20
2018-06-13T11:54:00.266Z,31.00
2018-06-13T11:56:28.182Z,31.60
2018-06-13T11:58:55.887Z,30.90
2018-06-13T12:01:23.623Z,30.80
2018-06-13T12:03:51.359Z,30.50
2018-06-13T12:06:19.141Z,30.30
2018-06-13T12:08:47.298Z,30.20
2018-06-13T12:11:14.963Z,32.10
2018-06-13T12:13:42.703Z,30.50
2018-06-13T12:16:10.595Z,30.60
2018-06-13T12:18:38.352Z,30.70
2018-06-13T12:21:06.097Z,30.60
2018-06-13T12:23:33.806Z,30.50
2018-06-13T12:26:01.516Z,30.40
2018-06-13T12:28:29.208Z,30.50
2018-06-13T12:30:56.919Z,30.30
2018-06-13T12:33:24.660Z,30.30
2018-06-13T12:35:52.390Z,30.10
2018-06-13T12:38:20.162Z,30.10
2018-06-13T12:40:47.959Z,30.10
2018-06-13T12:43:15.835Z,30.00
2018-06-13T12:48:11.330Z,30.10
2018-06-13T12:50:39.039Z,30.10
2018-06-13T12:53:06.719Z,29.70
2018-06-13T12:55:34.410Z,29.80
2018-06-13T12:58:02.119Z,29.80
2018-06-13T13:00:29.786Z,30.00
2018-06-13T13:02:57.463Z,30.10
2018-06-13T13:07:53.060Z,31.10
2018-06-13T13:10:21.040Z,31.30
2018-06-13T13:12:48.734Z,31.50
2018-06-13T13:15:16.459Z,31.70
2018-06-13T13:17:44.215Z,31.70
2018-06-13T13:20:12.054Z,31.50
2018-06-13T13:22:39.707Z,31.60
2018-06-13T13:25:07.491Z,31.70
2018-06-13T13:27:35.287Z,31.60
2018-06-13T13:30:03.164Z,31.30
2018-06-13T13:32:30.830Z,31.20
2018-06-13T13:34:58.543Z,31.30
2018-06-13T13:37:26.502Z,31.30
2018-06-13T13:39:54.296Z,31.50
2018-06-13T13:42:21.995Z,31.60
2018-06-13T13:44:49.773Z,31.70
2018-06-13T13:47:17.504Z,31.90
2018-06-13T13:49:45.207Z,31.80
2018-06-13T13:52:12.927Z,32.00
2018-06-13T13:54:40.633Z,32.10
2018-06-13T13:57:08.343Z,32.00
2018-06-13T13:59:36.131Z,32.20
2018-06-13T14:02:03.839Z,32.70
2018-06-13T14:04:31.550Z,33.10
2018-06-13T14:06:59.589Z,33.80
2018-06-13T14:09:27.213Z,33.20
2018-06-13T14:11:54.914Z,33.10
2018-06-13T14:14:22.584Z,33.00
2018-06-13T14:16:50.320Z,32.70
2018-06-13T14:19:17.968Z,32.60
2018-06-13T14:21:45.662Z,32.30
2018-06-13T14:24:13.405Z,32.20
2018-06-13T14:26:41.108Z,32.30
2018-06-13T14:29:08.802Z,32.20
2018-06-13T14:31:36.451Z,31.90
2018-06-13T14:34:04.168Z,31.90
2018-06-13T14:36:32.242Z,31.80
2018-06-13T14:38:59.921Z,31.80
2018-06-13T14:41:27.603Z,31.80
2018-06-13T14:43:55.219Z,31.70
2018-06-13T14:46:22.895Z,31.50
2018-06-13T14:48:50.571Z,31.50
2018-06-13T14:51:18.297Z,31.40
2018-06-13T14:53:45.962Z,31.20
2018-06-13T14:56:19.459Z,31.10
2018-06-13T14:58:47.143Z,31.10
2018-06-13T15:01:14.857Z,31.10
2018-06-13T15:03:42.538Z,31.00
2018-06-13T15:06:10.691Z,30.60
2018-06-13T15:08:38.402Z,30.40
2018-06-13T15:11:06.333Z,30.10
2018-06-13T15:13:33.982Z,30.00
2018-06-13T15:16:01.689Z,30.10
2018-06-13T15:18:29.369Z,30.10
2018-06-13T15:20:57.071Z,29.90
2018-06-13T15:23:24.739Z,29.70
2018-06-13T15:25:52.416Z,29.70
2018-06-13T15:28:20.138Z,29.80
2018-06-13T15:30:47.934Z,30.20
2018-06-13T15:35:43.327Z,31.00
2018-06-13T15:38:11.068Z,31.50
2018-06-13T15:40:38.794Z,31.60
2018-06-13T15:43:06.647Z,31.70
2018-06-13T15:48:00.054Z,31.90
2018-06-13T15:50:27.825Z,32.60
2018-06-13T15:52:55.996Z,33.10
2018-06-13T15:57:52.050Z,33.10
2018-06-13T16:00:19.768Z,33.10
2018-06-13T16:02:47.640Z,33.10
2018-06-13T16:05:15.347Z,33.00
2018-06-13T16:07:43.065Z,35.20
2018-06-13T16:10:10.803Z,32.90
2018-06-13T16:12:38.610Z,32.50
2018-06-13T16:15:06.316Z,32.20
2018-06-13T16:17:34.032Z,32.00
2018-06-13T16:20:01.741Z,31.80
2018-06-13T16:22:29.452Z,31.50
2018-06-13T16:24:57.203Z,31.30
2018-06-13T16:27:24.913Z,31.40
2018-06-13T16:29:52.611Z,31.30
2018-06-13T16:32:20.384Z,31.30
2018-06-13T16:34:48.165Z,31.10
2018-06-13T16:37:15.887Z,30.90
2018-06-13T16:39:43.609Z,30.80
2018-06-13T16:42:11.546Z,30.40
2018-06-13T16:44:39.907Z,30.30
2018-06-13T16:47:07.649Z,30.00
2018-06-13T16:49:35.420Z,29.90
2018-06-13T16:52:20.395Z,29.50
2018-06-13T16:55:18.180Z,29.30
2018-06-13T16:57:46.134Z,29.50
2018-06-13T17:00:13.825Z,29.20
2018-06-13T17:02:41.504Z,29.10
2018-06-13T17:05:09.212Z,28.90
2018-06-13T17:07:36.907Z,29.10
2018-06-13T17:10:04.655Z,29.10
2018-06-13T17:12:32.369Z,29.20
2018-06-13T17:15:00.315Z,29.20
2018-06-13T17:17:28.065Z,29.30
2018-06-13T17:19:56.728Z,29.10
2018-06-13T17:22:24.423Z,29.40
2018-06-13T17:24:53.027Z,29.30
2018-06-13T17:27:20.766Z,29.10
2018-06-13T17:32:16.446Z,29.00
2018-06-13T17:34:44.419Z,28.90
2018-06-13T17:37:12.127Z,29.00
2018-06-13T17:39:39.846Z,29.30
2018-06-13T17:42:07.578Z,29.50
2018-06-13T17:44:35.282Z,29.60
2018-06-13T17:47:02.993Z,29.70
2018-06-13T17:51:58.502Z,30.00
2018-06-13T17:54:26.357Z,30.20
2018-06-13T17:56:54.253Z,30.40
2018-06-13T17:59:22.106Z,30.60
2018-06-13T18:01:49.821Z,30.90
2018-06-13T18:04:17.570Z,31.00
2018-06-13T18:06:45.336Z,31.00
2018-06-13T18:09:13.125Z,31.10
2018-06-13T18:11:40.924Z,31.30
2018-06-13T18:14:08.670Z,31.70
2018-06-13T18:16:36.372Z,31.90
2018-06-13T18:19:04.324Z,32.00
2018-06-13T18:21:32.139Z,31.90
2018-06-13T18:23:59.901Z,32.10
2018-06-13T18:26:27.590Z,32.00
2018-06-13T18:28:55.281Z,32.00
2018-06-13T18:31:23.011Z,32.00
2018-06-13T18:33:50.754Z,31.70
2018-06-13T18:36:18.533Z,31.50
2018-06-13T18:38:46.261Z,31.40
2018-06-13T18:41:14.030Z,31.20
2018-06-13T18:43:41.772Z,31.00
2018-06-13T18:46:09.487Z,30.90
2018-06-13T18:48:37.182Z,30.90
2018-06-13T18:51:04.936Z,30.60
2018-06-13T18:53:32.713Z,30.40
2018-06-13T18:56:00.421Z,30.30
2018-06-13T19:00:56.495Z,30.10
2018-06-13T19:03:24.273Z,30.00
2018-06-13T19:05:51.997Z,29.70
2018-06-13T19:08:19.738Z,29.50
2018-06-13T19:10:47.502Z,29.30
2018-06-13T19:13:15.270Z,29.00
2018-06-13T19:15:43.994Z,28.90
2018-06-13T19:18:12.442Z,28.70
2018-06-13T19:20:40.250Z,28.60
2018-06-13T19:23:07.975Z,28.40
2018-06-13T19:25:35.755Z,28.30
2018-06-13T19:28:03.725Z,28.20
2018-06-13T19:30:31.507Z,28.10
2018-06-13T19:32:59.522Z,27.80
2018-06-13T19:35:27.339Z,27.70
2018-06-13T19:37:55.073Z,27.60
2018-06-13T19:40:22.778Z,27.50
2018-06-13T19:42:50.554Z,27.30
2018-06-13T19:45:18.276Z,27.10
2018-06-13T19:47:51.909Z,27.00
2018-06-13T19:50:21.501Z,26.90
2018-06-13T19:52:55.034Z,26.70
2018-06-13T19:55:30.037Z,26.50
2018-06-13T19:57:58.236Z,26.40
2018-06-13T20:00:26.024Z,26.10
2018-06-13T20:02:59.561Z,26.10
2018-06-13T20:05:33.267Z,26.00
2018-06-13T20:08:01.500Z,25.80
2018-06-13T20:10:29.259Z,25.70
2018-06-13T20:13:02.622Z,25.60
2018-06-13T20:15:36.026Z,25.50
2018-06-13T20:18:10.555Z,25.20
2018-06-13T20:20:38.334Z,25.10
2018-06-13T20:23:06.045Z,24.90
2018-06-13T20:25:39.571Z,24.80
2018-06-13T20:28:13.410Z,24.80
2018-06-13T20:30:46.954Z,24.70
2018-06-13T20:33:14.748Z,24.60
2018-06-13T20:35:42.457Z,24.50
2018-06-13T20:38:11.292Z,24.40
2018-06-13T20:40:38.972Z,24.30
2018-06-13T20:43:06.729Z,24.10
2018-06-13T20:45:36.127Z,24.00
2018-06-13T20:48:03.899Z,23.90
2018-06-13T20:50:31.943Z,23.70
2018-06-13T20:52:59.718Z,23.60
2018-06-13T20:55:27.505Z,23.40
2018-06-13T20:57:55.199Z,23.40
2018-06-13T21:00:23.118Z,23.30
2018-06-13T21:02:51.778Z,23.30
2018-06-13T21:05:20.819Z,23.30
2018-06-13T21:07:48.536Z,23.20
2018-06-13T21:10:16.257Z,23.10
2018-06-13T21:12:43.961Z,23.00
2018-06-13T21:15:11.677Z,22.90
2018-06-13T21:17:39.373Z,22.90
2018-06-13T21:20:07.113Z,22.90
2018-06-13T21:22:34.803Z,22.90
2018-06-13T21:25:02.512Z,22.80
2018-06-13T21:27:30.222Z,22.80
2018-06-13T21:29:57.913Z,22.60
2018-06-13T21:32:26.019Z,22.60
2018-06-13T21:34:54.352Z,22.60
2018-06-13T21:37:22.080Z,22.60
2018-06-13T21:39:49.790Z,22.50
2018-06-13T21:42:17.552Z,22.50
2018-06-13T21:44:45.232Z,22.40
2018-06-13T21:47:12.948Z,22.40
2018-06-13T21:49:40.618Z,22.30
2018-06-13T21:52:08.310Z,22.40
2018-06-13T21:54:36.015Z,22.30
2018-06-13T21:57:03.726Z,22.30
2018-06-13T21:59:31.391Z,22.30
2018-06-13T22:01:59.063Z,22.40
2018-06-13T22:04:26.738Z,22.30
2018-06-13T22:06:54.439Z,22.30
2018-06-13T22:11:51.930Z,22.30
2018-06-13T22:14:19.971Z,22.20
2018-06-13T22:16:48.295Z,22.10
2018-06-13T22:19:16.028Z,22.10
2018-06-13T22:21:43.739Z,22.10
2018-06-13T22:24:11.729Z,22.00
2018-06-13T22:26:39.423Z,21.90
2018-06-13T22:29:07.419Z,22.00
2018-06-13T22:31:35.273Z,22.00
2018-06-13T22:34:03.015Z,22.00
2018-06-13T22:36:30.748Z,22.00
2018-06-13T22:38:58.435Z,21.90
2018-06-13T22:41:26.242Z,21.90
2018-06-13T22:43:53.935Z,21.90
2018-06-13T22:46:21.611Z,21.90
2018-06-13T22:48:49.321Z,21.90
2018-06-13T22:51:17.014Z,21.70
2018-06-13T22:53:44.678Z,21.70
2018-06-13T22:56:12.398Z,21.60
2018-06-13T22:58:40.150Z,21.70
2018-06-13T23:01:09.127Z,21.70
2018-06-13T23:03:36.787Z,21.60
2018-06-13T23:06:05.681Z,21.50
2018-06-13T23:08:34.166Z,21.60
2018-06-13T23:13:37.033Z,22.00
2018-06-13T23:16:04.742Z,22.80
2018-06-13T23:18:32.450Z,21.90
2018-06-13T23:21:00.166Z,21.90
2018-06-13T23:23:27.970Z,21.90
2018-06-13T23:25:56.281Z,21.70
2018-06-13T23:28:24.085Z,21.90
2018-06-13T23:30:51.924Z,21.60
2018-06-13T23:33:19.642Z,22.20
2018-06-13T23:35:47.452Z,21.80
2018-06-13T23:40:43.519Z,21.40
2018-06-13T23:43:11.223Z,21.40
2018-06-13T23:45:38.987Z,21.20
2018-06-13T23:48:06.729Z,21.00
2018-06-13T23:50:34.491Z,20.60
2018-06-13T23:53:02.174Z,20.40
2018-06-13T23:55:29.911Z,20.40
2018-06-13T23:57:57.660Z,20.30
